sensor_id;sensor_type;location;lat;lon;timestamp;temperature;humidity
11005;DHT22;5555;59.622;16.556;2023-01-16T00:01:12;3.10;99.90
11005;DHT22;5555;59.622;16.556;2023-01-16T00:03:38;3.10;99.90
11005;DHT22;5555;59.622;16.556;2023-01-16T00:06:04;3.20;99.90
11005;DHT22;5555;59.622;16.556;2023-01-16T00:08:30;3.20;99.90
11005;DHT22;5555;59.622;16.556;2023-01-16T00:10:56;3.10;99.90
11005;DHT22;5555;59.622;16.556;2023-01-16T00:13:22;3.20;99.90
11005;DHT22;5555;59.622;16.556;2023-01-16T00:15:50;3.20;99.90
11005;DHT22;5555;59.622;16.556;2023-01-16T00:18:16;3.20;99.90
11005;DHT22;5555;59.622;16.556;2023-01-16T00:20:41;3.20;99.90
11005;DHT22;5555;59.622;16.556;2023-01-16T00:23:07;3.20;99.90
11005;DHT22;5555;59.622;16.556;2023-01-16T00:25:33;3.20;99.90
11005;DHT22;5555;59.622;16.556;2023-01-16T00:28:00;3.20;99.90
11005;DHT22;5555;59.622;16.556;2023-01-16T00:30:26;3.10;99.90
11005;DHT22;5555;59.622;16.556;2023-01-16T00:32:51;3.20;99.90
11005;DHT22;5555;59.622;16.556;2023-01-16T00:35:17;3.20;99.90
11005;DHT22;5555;59.622;16.556;2023-01-16T00:37:42;3.20;99.90
11005;DHT22;5555;59.622;16.556;2023-01-16T00:40:08;3.20;99.90
11005;DHT22;5555;59.622;16.556;2023-01-16T00:42:34;3.20;99.90
11005;DHT22;5555;59.622;16.556;2023-01-16T00:45:00;3.10;99.90
11005;DHT22;5555;59.622;16.556;2023-01-16T00:47:25;3.10;99.90
11005;DHT22;5555;59.622;16.556;2023-01-16T00:49:51;3.10;99.90
11005;DHT22;5555;59.622;16.556;2023-01-16T00:52:16;3.10;99.90
11005;DHT22;5555;59.622;16.556;2023-01-16T00:54:42;3.10;99.90
11005;DHT22;5555;59.622;16.556;2023-01-16T00:57:08;3.10;99.90
11005;DHT22;5555;59.622;16.556;2023-01-16T00:59:33;3.20;99.90
11005;DHT22;5555;59.622;16.556;2023-01-16T01:01:59;3.20;99.90
11005;DHT22;5555;59.622;16.556;2023-01-16T01:04:24;3.20;99.90
11005;DHT22;5555;59.622;16.556;2023-01-16T01:06:50;3.20;99.90
11005;DHT22;5555;59.622;16.556;2023-01-16T01:09:16;3.20;99.90
11005;DHT22;5555;59.622;16.556;2023-01-16T01:11:41;3.20;99.90
11005;DHT22;5555;59.622;16.556;2023-01-16T01:14:07;3.20;99.90
11005;DHT22;5555;59.622;16.556;2023-01-16T01:16:33;3.20;99.90
11005;DHT22;5555;59.622;16.556;2023-01-16T01:18:58;3.20;99.90
11005;DHT22;5555;59.622;16.556;2023-01-16T01:21:24;3.20;99.90
11005;DHT22;5555;59.622;16.556;2023-01-16T01:23:49;3.20;99.90
11005;DHT22;5555;59.622;16.556;2023-01-16T01:26:16;3.20;99.90
11005;DHT22;5555;59.622;16.556;2023-01-16T01:28:43;3.20;99.90
11005;DHT22;5555;59.622;16.556;2023-01-16T01:31:11;3.20;99.90
11005;DHT22;5555;59.622;16.556;2023-01-16T01:33:38;3.20;99.90
11005;DHT22;5555;59.622;16.556;2023-01-16T01:36:05;3.20;99.90
11005;DHT22;5555;59.622;16.556;2023-01-16T01:38:32;3.20;99.90
11005;DHT22;5555;59.622;16.556;2023-01-16T01:40:58;3.30;99.90
11005;DHT22;5555;59.622;16.556;2023-01-16T01:43:43;3.30;99.90
11005;DHT22;5555;59.622;16.556;2023-01-16T01:48:53;3.40;99.90
11005;DHT22;5555;59.622;16.556;2023-01-16T01:51:24;3.40;99.90
11005;DHT22;5555;59.622;16.556;2023-01-16T01:54:03;3.40;99.90
11005;DHT22;5555;59.622;16.556;2023-01-16T01:56:40;3.40;99.90
11005;DHT22;5555;59.622;16.556;2023-01-16T01:59:12;3.50;99.90
11005;DHT22;5555;59.622;16.556;2023-01-16T02:01:39;3.50;99.90
11005;DHT22;5555;59.622;16.556;2023-01-16T02:04:10;3.40;99.90
11005;DHT22;5555;59.622;16.556;2023-01-16T02:06:45;3.40;99.90
11005;DHT22;5555;59.622;16.556;2023-01-16T02:09:13;3.30;99.90
11005;DHT22;5555;59.622;16.556;2023-01-16T02:11:53;3.30;99.90
11005;DHT22;5555;59.622;16.556;2023-01-16T02:14:20;3.30;99.90
11005;DHT22;5555;59.622;16.556;2023-01-16T02:16:47;3.30;99.90
11005;DHT22;5555;59.622;16.556;2023-01-16T02:22:38;3.30;99.90
11005;DHT22;5555;59.622;16.556;2023-01-16T02:33:58;3.10;99.90
11005;DHT22;5555;59.622;16.556;2023-01-16T02:39:17;2.90;99.90
11005;DHT22;5555;59.622;16.556;2023-01-16T02:42:10;2.80;99.90
11005;DHT22;5555;59.622;16.556;2023-01-16T02:44:55;2.70;99.90
11005;DHT22;5555;59.622;16.556;2023-01-16T02:53:21;2.60;99.90
11005;DHT22;5555;59.622;16.556;2023-01-16T02:56:03;2.70;99.90
11005;DHT22;5555;59.622;16.556;2023-01-16T02:58:37;2.70;99.90
11005;DHT22;5555;59.622;16.556;2023-01-16T03:01:07;2.70;99.90
11005;DHT22;5555;59.622;16.556;2023-01-16T03:08:59;2.90;99.90
11005;DHT22;5555;59.622;16.556;2023-01-16T03:11:32;2.90;99.90
11005;DHT22;5555;59.622;16.556;2023-01-16T03:16:37;2.90;99.90
11005;DHT22;5555;59.622;16.556;2023-01-16T03:19:20;2.90;99.90
11005;DHT22;5555;59.622;16.556;2023-01-16T03:29:57;3.00;99.90
11005;DHT22;5555;59.622;16.556;2023-01-16T03:32:33;2.90;99.90
11005;DHT22;5555;59.622;16.556;2023-01-16T03:35:12;2.80;99.90
11005;DHT22;5555;59.622;16.556;2023-01-16T03:37:44;2.70;99.90
11005;DHT22;5555;59.622;16.556;2023-01-16T03:40:13;2.70;99.90
11005;DHT22;5555;59.622;16.556;2023-01-16T03:45:54;2.70;99.90
11005;DHT22;5555;59.622;16.556;2023-01-16T03:48:40;2.60;99.90
11005;DHT22;5555;59.622;16.556;2023-01-16T03:51:12;2.60;99.90
11005;DHT22;5555;59.622;16.556;2023-01-16T03:53:45;2.60;99.90
11005;DHT22;5555;59.622;16.556;2023-01-16T03:56:27;2.60;99.90
11005;DHT22;5555;59.622;16.556;2023-01-16T03:58:55;2.60;99.90
11005;DHT22;5555;59.622;16.556;2023-01-16T04:01:37;2.60;99.90
11005;DHT22;5555;59.622;16.556;2023-01-16T04:06:57;2.60;99.90
11005;DHT22;5555;59.622;16.556;2023-01-16T04:09:38;2.50;99.90
11005;DHT22;5555;59.622;16.556;2023-01-16T04:12:07;2.50;99.90
11005;DHT22;5555;59.622;16.556;2023-01-16T04:14:34;2.50;99.90
11005;DHT22;5555;59.622;16.556;2023-01-16T04:17:01;2.50;99.90
11005;DHT22;5555;59.622;16.556;2023-01-16T04:19:28;2.50;99.90
11005;DHT22;5555;59.622;16.556;2023-01-16T04:21:55;2.50;99.90
11005;DHT22;5555;59.622;16.556;2023-01-16T04:24:21;2.50;99.90
11005;DHT22;5555;59.622;16.556;2023-01-16T04:26:46;2.50;99.90
11005;DHT22;5555;59.622;16.556;2023-01-16T04:29:12;2.50;99.90
11005;DHT22;5555;59.622;16.556;2023-01-16T04:31:38;2.50;99.90
11005;DHT22;5555;59.622;16.556;2023-01-16T04:34:04;2.50;99.90
11005;DHT22;5555;59.622;16.556;2023-01-16T04:36:29;2.50;99.90
11005;DHT22;5555;59.622;16.556;2023-01-16T04:38:56;2.50;99.90
11005;DHT22;5555;59.622;16.556;2023-01-16T04:41:22;2.50;99.90
11005;DHT22;5555;59.622;16.556;2023-01-16T04:44:08;2.50;99.90
11005;DHT22;5555;59.622;16.556;2023-01-16T04:46:34;2.50;99.90
11005;DHT22;5555;59.622;16.556;2023-01-16T04:49:00;2.50;99.90
11005;DHT22;5555;59.622;16.556;2023-01-16T04:51:26;2.50;99.90
11005;DHT22;5555;59.622;16.556;2023-01-16T04:53:52;2.40;99.90
11005;DHT22;5555;59.622;16.556;2023-01-16T04:56:18;2.40;99.90
11005;DHT22;5555;59.622;16.556;2023-01-16T04:58:43;2.40;99.90
11005;DHT22;5555;59.622;16.556;2023-01-16T05:01:09;2.40;99.90
11005;DHT22;5555;59.622;16.556;2023-01-16T05:03:35;2.40;99.90
11005;DHT22;5555;59.622;16.556;2023-01-16T05:06:00;2.40;99.90
11005;DHT22;5555;59.622;16.556;2023-01-16T05:08:26;2.40;99.90
11005;DHT22;5555;59.622;16.556;2023-01-16T05:10:54;2.30;99.90
11005;DHT22;5555;59.622;16.556;2023-01-16T05:13:20;2.30;99.90
11005;DHT22;5555;59.622;16.556;2023-01-16T05:15:46;2.30;99.90
11005;DHT22;5555;59.622;16.556;2023-01-16T05:18:12;2.30;99.90
11005;DHT22;5555;59.622;16.556;2023-01-16T05:20:40;2.30;99.90
11005;DHT22;5555;59.622;16.556;2023-01-16T05:23:06;2.20;99.90
11005;DHT22;5555;59.622;16.556;2023-01-16T05:25:34;2.20;99.90
11005;DHT22;5555;59.622;16.556;2023-01-16T05:28:00;2.20;99.90
11005;DHT22;5555;59.622;16.556;2023-01-16T05:30:25;2.20;99.90
11005;DHT22;5555;59.622;16.556;2023-01-16T05:32:51;2.20;99.90
11005;DHT22;5555;59.622;16.556;2023-01-16T05:35:16;2.20;99.90
11005;DHT22;5555;59.622;16.556;2023-01-16T05:37:42;2.20;99.90
11005;DHT22;5555;59.622;16.556;2023-01-16T05:40:09;2.20;99.90
11005;DHT22;5555;59.622;16.556;2023-01-16T05:42:35;2.20;99.90
11005;DHT22;5555;59.622;16.556;2023-01-16T05:45:00;2.20;99.90
11005;DHT22;5555;59.622;16.556;2023-01-16T05:47:26;2.20;99.90
11005;DHT22;5555;59.622;16.556;2023-01-16T05:49:52;2.20;99.90
11005;DHT22;5555;59.622;16.556;2023-01-16T05:52:17;2.10;99.90
11005;DHT22;5555;59.622;16.556;2023-01-16T05:54:43;2.20;99.90
11005;DHT22;5555;59.622;16.556;2023-01-16T05:57:08;2.20;99.90
11005;DHT22;5555;59.622;16.556;2023-01-16T05:59:34;2.20;99.90
11005;DHT22;5555;59.622;16.556;2023-01-16T06:01:59;2.20;99.90
11005;DHT22;5555;59.622;16.556;2023-01-16T06:04:25;2.20;99.90
11005;DHT22;5555;59.622;16.556;2023-01-16T06:06:51;2.10;99.90
11005;DHT22;5555;59.622;16.556;2023-01-16T06:09:16;2.10;99.90
11005;DHT22;5555;59.622;16.556;2023-01-16T06:11:43;2.10;99.90
11005;DHT22;5555;59.622;16.556;2023-01-16T06:14:08;2.00;99.90
11005;DHT22;5555;59.622;16.556;2023-01-16T06:16:34;2.00;99.90
11005;DHT22;5555;59.622;16.556;2023-01-16T06:19:01;2.00;99.90
11005;DHT22;5555;59.622;16.556;2023-01-16T06:21:27;2.00;99.90
11005;DHT22;5555;59.622;16.556;2023-01-16T06:23:52;1.90;99.90
11005;DHT22;5555;59.622;16.556;2023-01-16T06:26:18;1.80;99.90
11005;DHT22;5555;59.622;16.556;2023-01-16T06:28:45;1.70;99.90
11005;DHT22;5555;59.622;16.556;2023-01-16T06:31:11;1.70;99.90
11005;DHT22;5555;59.622;16.556;2023-01-16T06:33:36;1.70;99.90
11005;DHT22;5555;59.622;16.556;2023-01-16T06:36:02;1.60;99.90
11005;DHT22;5555;59.622;16.556;2023-01-16T06:38:28;1.50;99.90
11005;DHT22;5555;59.622;16.556;2023-01-16T06:40:54;1.50;99.90
11005;DHT22;5555;59.622;16.556;2023-01-16T06:43:23;1.40;99.90
11005;DHT22;5555;59.622;16.556;2023-01-16T06:45:48;1.30;99.90
11005;DHT22;5555;59.622;16.556;2023-01-16T06:48:14;1.30;99.90
11005;DHT22;5555;59.622;16.556;2023-01-16T06:50:40;1.40;99.90
11005;DHT22;5555;59.622;16.556;2023-01-16T06:53:05;1.40;99.90
11005;DHT22;5555;59.622;16.556;2023-01-16T06:55:31;1.50;99.90
11005;DHT22;5555;59.622;16.556;2023-01-16T06:57:56;1.40;99.90
11005;DHT22;5555;59.622;16.556;2023-01-16T07:00:22;1.40;99.90
11005;DHT22;5555;59.622;16.556;2023-01-16T07:02:56;1.40;99.90
11005;DHT22;5555;59.622;16.556;2023-01-16T07:05:22;1.50;99.90
11005;DHT22;5555;59.622;16.556;2023-01-16T07:07:49;1.40;99.90
11005;DHT22;5555;59.622;16.556;2023-01-16T07:10:15;1.40;99.90
11005;DHT22;5555;59.622;16.556;2023-01-16T07:12:41;1.40;99.90
11005;DHT22;5555;59.622;16.556;2023-01-16T07:15:07;1.30;99.90
11005;DHT22;5555;59.622;16.556;2023-01-16T07:17:53;1.20;99.90
11005;DHT22;5555;59.622;16.556;2023-01-16T07:20:38;1.10;99.90
11005;DHT22;5555;59.622;16.556;2023-01-16T07:23:32;1.10;99.90
11005;DHT22;5555;59.622;16.556;2023-01-16T07:26:01;1.00;99.90
11005;DHT22;5555;59.622;16.556;2023-01-16T07:28:28;1.00;99.90
11005;DHT22;5555;59.622;16.556;2023-01-16T07:30:55;0.90;99.90
11005;DHT22;5555;59.622;16.556;2023-01-16T07:33:22;1.00;99.90
11005;DHT22;5555;59.622;16.556;2023-01-16T07:35:48;0.90;99.90
11005;DHT22;5555;59.622;16.556;2023-01-16T07:38:14;0.90;99.90
11005;DHT22;5555;59.622;16.556;2023-01-16T07:40:39;0.80;99.90
11005;DHT22;5555;59.622;16.556;2023-01-16T07:43:05;0.90;99.90
11005;DHT22;5555;59.622;16.556;2023-01-16T07:45:31;0.90;99.90
11005;DHT22;5555;59.622;16.556;2023-01-16T07:47:56;0.80;99.90
11005;DHT22;5555;59.622;16.556;2023-01-16T07:50:22;0.80;99.90
11005;DHT22;5555;59.622;16.556;2023-01-16T07:52:48;0.80;99.90
11005;DHT22;5555;59.622;16.556;2023-01-16T07:55:14;0.80;99.90
11005;DHT22;5555;59.622;16.556;2023-01-16T07:57:40;0.70;99.90
11005;DHT22;5555;59.622;16.556;2023-01-16T08:00:07;0.70;99.90
11005;DHT22;5555;59.622;16.556;2023-01-16T08:02:34;0.80;99.90
11005;DHT22;5555;59.622;16.556;2023-01-16T08:04:59;0.80;99.90
11005;DHT22;5555;59.622;16.556;2023-01-16T08:07:25;0.80;99.90
11005;DHT22;5555;59.622;16.556;2023-01-16T08:09:51;0.80;99.90
11005;DHT22;5555;59.622;16.556;2023-01-16T08:12:16;0.80;99.90
11005;DHT22;5555;59.622;16.556;2023-01-16T08:14:42;0.80;99.90
11005;DHT22;5555;59.622;16.556;2023-01-16T08:17:07;0.80;99.90
11005;DHT22;5555;59.622;16.556;2023-01-16T08:19:33;0.90;99.90
11005;DHT22;5555;59.622;16.556;2023-01-16T08:21:59;0.90;99.90
11005;DHT22;5555;59.622;16.556;2023-01-16T08:24:24;0.90;99.90
11005;DHT22;5555;59.622;16.556;2023-01-16T08:26:55;0.90;99.90
11005;DHT22;5555;59.622;16.556;2023-01-16T08:29:21;0.90;99.90
11005;DHT22;5555;59.622;16.556;2023-01-16T08:31:47;0.90;99.90
11005;DHT22;5555;59.622;16.556;2023-01-16T08:34:12;0.90;99.90
11005;DHT22;5555;59.622;16.556;2023-01-16T08:36:38;0.90;99.90
11005;DHT22;5555;59.622;16.556;2023-01-16T08:39:04;0.90;99.90
11005;DHT22;5555;59.622;16.556;2023-01-16T08:41:29;0.90;99.90
11005;DHT22;5555;59.622;16.556;2023-01-16T08:44:13;0.90;99.90
11005;DHT22;5555;59.622;16.556;2023-01-16T08:47:04;0.90;99.90
11005;DHT22;5555;59.622;16.556;2023-01-16T08:49:49;1.00;99.90
11005;DHT22;5555;59.622;16.556;2023-01-16T08:52:35;1.00;99.90
11005;DHT22;5555;59.622;16.556;2023-01-16T08:55:02;1.00;99.90
11005;DHT22;5555;59.622;16.556;2023-01-16T08:57:28;1.00;99.90
11005;DHT22;5555;59.622;16.556;2023-01-16T08:59:55;1.10;99.90
11005;DHT22;5555;59.622;16.556;2023-01-16T09:02:21;1.00;99.90
11005;DHT22;5555;59.622;16.556;2023-01-16T09:04:47;1.10;99.90
11005;DHT22;5555;59.622;16.556;2023-01-16T09:07:15;1.10;99.90
11005;DHT22;5555;59.622;16.556;2023-01-16T09:09:40;1.10;99.90
11005;DHT22;5555;59.622;16.556;2023-01-16T09:12:09;1.10;99.90
11005;DHT22;5555;59.622;16.556;2023-01-16T09:14:54;1.10;99.90
11005;DHT22;5555;59.622;16.556;2023-01-16T09:17:24;1.10;99.90
11005;DHT22;5555;59.622;16.556;2023-01-16T09:19:50;1.10;99.90
11005;DHT22;5555;59.622;16.556;2023-01-16T09:22:16;1.20;99.90
11005;DHT22;5555;59.622;16.556;2023-01-16T09:24:42;1.20;99.90
11005;DHT22;5555;59.622;16.556;2023-01-16T09:27:08;1.20;99.90
11005;DHT22;5555;59.622;16.556;2023-01-16T09:29:34;1.30;99.90
11005;DHT22;5555;59.622;16.556;2023-01-16T09:32:00;1.30;99.90
11005;DHT22;5555;59.622;16.556;2023-01-16T09:34:32;1.30;99.90
11005;DHT22;5555;59.622;16.556;2023-01-16T09:36:58;1.30;99.90
11005;DHT22;5555;59.622;16.556;2023-01-16T09:39:24;1.30;99.90
11005;DHT22;5555;59.622;16.556;2023-01-16T09:45:02;1.40;99.90
11005;DHT22;5555;59.622;16.556;2023-01-16T09:47:29;1.50;99.90
11005;DHT22;5555;59.622;16.556;2023-01-16T09:50:15;1.70;99.90
11005;DHT22;5555;59.622;16.556;2023-01-16T09:52:44;1.70;99.90
11005;DHT22;5555;59.622;16.556;2023-01-16T09:55:48;1.80;99.90
11005;DHT22;5555;59.622;16.556;2023-01-16T09:58:39;1.90;99.90
11005;DHT22;5555;59.622;16.556;2023-01-16T10:01:32;1.90;99.90
11005;DHT22;5555;59.622;16.556;2023-01-16T10:04:18;1.90;99.90
11005;DHT22;5555;59.622;16.556;2023-01-16T10:07:00;1.90;99.90
11005;DHT22;5555;59.622;16.556;2023-01-16T10:09:44;1.90;99.90
11005;DHT22;5555;59.622;16.556;2023-01-16T10:12:12;2.00;99.90
11005;DHT22;5555;59.622;16.556;2023-01-16T10:14:49;2.10;99.90
11005;DHT22;5555;59.622;16.556;2023-01-16T10:25:47;2.30;99.90
11005;DHT22;5555;59.622;16.556;2023-01-16T10:31:02;2.40;99.90
11005;DHT22;5555;59.622;16.556;2023-01-16T10:36:14;2.50;99.90
11005;DHT22;5555;59.622;16.556;2023-01-16T10:38:47;2.50;99.90
11005;DHT22;5555;59.622;16.556;2023-01-16T10:47:14;2.60;99.90
11005;DHT22;5555;59.622;16.556;2023-01-16T10:49:59;2.70;99.90
11005;DHT22;5555;59.622;16.556;2023-01-16T10:52:24;2.70;99.90
11005;DHT22;5555;59.622;16.556;2023-01-16T10:54:55;2.70;99.90
11005;DHT22;5555;59.622;16.556;2023-01-16T10:57:21;2.80;99.90
11005;DHT22;5555;59.622;16.556;2023-01-16T10:59:50;2.80;99.90
11005;DHT22;5555;59.622;16.556;2023-01-16T11:02:23;2.80;99.90
11005;DHT22;5555;59.622;16.556;2023-01-16T11:04:50;2.80;99.90
11005;DHT22;5555;59.622;16.556;2023-01-16T11:07:21;2.80;99.90
11005;DHT22;5555;59.622;16.556;2023-01-16T11:09:47;2.80;99.90
11005;DHT22;5555;59.622;16.556;2023-01-16T11:12:28;2.90;99.90
11005;DHT22;5555;59.622;16.556;2023-01-16T11:15:23;2.90;99.90
11005;DHT22;5555;59.622;16.556;2023-01-16T11:18:27;2.90;99.90
11005;DHT22;5555;59.622;16.556;2023-01-16T11:21:01;2.90;99.90
11005;DHT22;5555;59.622;16.556;2023-01-16T11:23:40;2.90;99.90
11005;DHT22;5555;59.622;16.556;2023-01-16T11:26:07;3.00;99.90
11005;DHT22;5555;59.622;16.556;2023-01-16T11:28:34;3.00;99.90
11005;DHT22;5555;59.622;16.556;2023-01-16T11:31:03;3.10;99.90
11005;DHT22;5555;59.622;16.556;2023-01-16T11:33:42;3.10;99.90
11005;DHT22;5555;59.622;16.556;2023-01-16T11:36:10;3.10;99.90
11005;DHT22;5555;59.622;16.556;2023-01-16T11:38:38;3.10;99.90
11005;DHT22;5555;59.622;16.556;2023-01-16T11:41:07;3.20;99.90
11005;DHT22;5555;59.622;16.556;2023-01-16T11:43:33;3.20;99.90
11005;DHT22;5555;59.622;16.556;2023-01-16T11:46:59;3.30;99.90
11005;DHT22;5555;59.622;16.556;2023-01-16T11:49:23;3.40;99.90
11005;DHT22;5555;59.622;16.556;2023-01-16T11:51:53;3.50;99.90
11005;DHT22;5555;59.622;16.556;2023-01-16T11:54:26;3.70;99.90
11005;DHT22;5555;59.622;16.556;2023-01-16T11:57:04;3.70;99.90
11005;DHT22;5555;59.622;16.556;2023-01-16T12:05:55;4.20;99.90
11005;DHT22;5555;59.622;16.556;2023-01-16T12:09:05;4.30;99.90
11005;DHT22;5555;59.622;16.556;2023-01-16T12:14:16;4.50;99.90
11005;DHT22;5555;59.622;16.556;2023-01-16T12:17:13;4.60;99.90
11005;DHT22;5555;59.622;16.556;2023-01-16T12:22:56;4.60;99.90
11005;DHT22;5555;59.622;16.556;2023-01-16T12:26:00;4.50;99.90
11005;DHT22;5555;59.622;16.556;2023-01-16T12:59:26;6.30;99.90
11005;DHT22;5555;59.622;16.556;2023-01-16T13:02:14;6.80;99.90
11005;DHT22;5555;59.622;16.556;2023-01-16T13:04:48;7.00;99.90
11005;DHT22;5555;59.622;16.556;2023-01-16T13:07:16;6.50;99.90
11005;DHT22;5555;59.622;16.556;2023-01-16T13:13:03;6.40;99.90
11005;DHT22;5555;59.622;16.556;2023-01-16T13:16:10;6.80;99.90
11005;DHT22;5555;59.622;16.556;2023-01-16T13:18:40;6.30;99.90
11005;DHT22;5555;59.622;16.556;2023-01-16T13:21:25;6.10;99.90
11005;DHT22;5555;59.622;16.556;2023-01-16T13:23:55;5.90;99.90
11005;DHT22;5555;59.622;16.556;2023-01-16T13:26:24;5.30;99.90
11005;DHT22;5555;59.622;16.556;2023-01-16T13:34:24;4.00;99.90
11005;DHT22;5555;59.622;16.556;2023-01-16T13:42:47;3.40;99.90
11005;DHT22;5555;59.622;16.556;2023-01-16T13:45:29;3.30;99.90
11005;DHT22;5555;59.622;16.556;2023-01-16T13:48:35;3.30;99.90
11005;DHT22;5555;59.622;16.556;2023-01-16T13:51:06;3.20;99.90
11005;DHT22;5555;59.622;16.556;2023-01-16T13:53:36;3.20;99.90
11005;DHT22;5555;59.622;16.556;2023-01-16T13:56:10;3.20;99.90
11005;DHT22;5555;59.622;16.556;2023-01-16T13:58:53;3.10;99.90
11005;DHT22;5555;59.622;16.556;2023-01-16T14:01:55;3.10;99.90
11005;DHT22;5555;59.622;16.556;2023-01-16T14:06:51;3.00;99.90
11005;DHT22;5555;59.622;16.556;2023-01-16T14:12:35;2.80;99.90
11005;DHT22;5555;59.622;16.556;2023-01-16T14:15:20;2.70;99.90
11005;DHT22;5555;59.622;16.556;2023-01-16T14:18:17;2.70;99.90
11005;DHT22;5555;59.622;16.556;2023-01-16T14:20:49;2.70;99.90
11005;DHT22;5555;59.622;16.556;2023-01-16T14:23:35;2.80;99.90
11005;DHT22;5555;59.622;16.556;2023-01-16T14:29:11;2.90;99.90
11005;DHT22;5555;59.622;16.556;2023-01-16T14:31:41;2.90;99.90
11005;DHT22;5555;59.622;16.556;2023-01-16T14:34:16;2.80;99.90
11005;DHT22;5555;59.622;16.556;2023-01-16T14:36:43;2.70;99.90
11005;DHT22;5555;59.622;16.556;2023-01-16T14:39:34;2.60;99.90
11005;DHT22;5555;59.622;16.556;2023-01-16T14:42:08;2.60;99.90
11005;DHT22;5555;59.622;16.556;2023-01-16T14:48:09;2.50;99.90
11005;DHT22;5555;59.622;16.556;2023-01-16T14:51:00;2.50;99.90
11005;DHT22;5555;59.622;16.556;2023-01-16T14:53:48;2.50;99.90
11005;DHT22;5555;59.622;16.556;2023-01-16T14:56:35;2.40;99.90
11005;DHT22;5555;59.622;16.556;2023-01-16T14:59:07;2.30;99.90
11005;DHT22;5555;59.622;16.556;2023-01-16T15:01:47;2.20;99.90
11005;DHT22;5555;59.622;16.556;2023-01-16T15:07:15;2.10;99.90
11005;DHT22;5555;59.622;16.556;2023-01-16T15:09:42;2.10;99.90
11005;DHT22;5555;59.622;16.556;2023-01-16T15:12:16;2.20;99.90
11005;DHT22;5555;59.622;16.556;2023-01-16T15:14:53;2.20;99.90
11005;DHT22;5555;59.622;16.556;2023-01-16T15:17:38;2.30;99.90
11005;DHT22;5555;59.622;16.556;2023-01-16T15:20:34;2.40;99.90
11005;DHT22;5555;59.622;16.556;2023-01-16T15:23:31;2.40;99.90
11005;DHT22;5555;59.622;16.556;2023-01-16T15:31:24;2.60;99.90
11005;DHT22;5555;59.622;16.556;2023-01-16T15:36:49;2.80;99.90
11005;DHT22;5555;59.622;16.556;2023-01-16T15:41:55;2.80;99.90
11005;DHT22;5555;59.622;16.556;2023-01-16T15:44:42;2.90;99.90
11005;DHT22;5555;59.622;16.556;2023-01-16T15:50:11;2.90;99.90
11005;DHT22;5555;59.622;16.556;2023-01-16T15:52:39;2.90;99.90
11005;DHT22;5555;59.622;16.556;2023-01-16T15:55:39;3.00;99.90
11005;DHT22;5555;59.622;16.556;2023-01-16T15:58:14;3.10;99.90
11005;DHT22;5555;59.622;16.556;2023-01-16T16:00:41;3.00;99.90
11005;DHT22;5555;59.622;16.556;2023-01-16T16:03:16;3.10;99.90
11005;DHT22;5555;59.622;16.556;2023-01-16T16:05:48;3.10;99.90
11005;DHT22;5555;59.622;16.556;2023-01-16T16:08:18;3.10;99.90
11005;DHT22;5555;59.622;16.556;2023-01-16T16:10:45;3.10;99.90
11005;DHT22;5555;59.622;16.556;2023-01-16T16:13:29;3.10;99.90
11005;DHT22;5555;59.622;16.556;2023-01-16T16:16:00;3.20;99.90
11005;DHT22;5555;59.622;16.556;2023-01-16T16:18:56;3.20;99.90
11005;DHT22;5555;59.622;16.556;2023-01-16T16:21:24;3.20;99.90
11005;DHT22;5555;59.622;16.556;2023-01-16T16:24:00;3.30;99.90
11005;DHT22;5555;59.622;16.556;2023-01-16T16:26:27;3.30;99.90
11005;DHT22;5555;59.622;16.556;2023-01-16T16:28:54;3.30;99.90
11005;DHT22;5555;59.622;16.556;2023-01-16T16:31:31;3.30;99.90
11005;DHT22;5555;59.622;16.556;2023-01-16T16:34:04;3.30;99.90
11005;DHT22;5555;59.622;16.556;2023-01-16T16:36:39;3.30;99.90
11005;DHT22;5555;59.622;16.556;2023-01-16T16:39:27;3.30;99.90
11005;DHT22;5555;59.622;16.556;2023-01-16T16:41:54;3.40;99.90
11005;DHT22;5555;59.622;16.556;2023-01-16T16:44:44;3.40;99.90
11005;DHT22;5555;59.622;16.556;2023-01-16T16:47:26;3.30;99.90
11005;DHT22;5555;59.622;16.556;2023-01-16T16:49:53;3.30;99.90
11005;DHT22;5555;59.622;16.556;2023-01-16T16:54:55;3.30;99.90
11005;DHT22;5555;59.622;16.556;2023-01-16T16:57:23;3.40;99.90
11005;DHT22;5555;59.622;16.556;2023-01-16T16:59:51;3.40;99.90
11005;DHT22;5555;59.622;16.556;2023-01-16T17:02:17;3.40;99.90
11005;DHT22;5555;59.622;16.556;2023-01-16T17:04:43;3.40;99.90
11005;DHT22;5555;59.622;16.556;2023-01-16T17:07:09;3.40;99.90
11005;DHT22;5555;59.622;16.556;2023-01-16T17:09:35;3.40;99.90
11005;DHT22;5555;59.622;16.556;2023-01-16T17:12:15;3.40;99.90
11005;DHT22;5555;59.622;16.556;2023-01-16T17:14:41;3.40;99.90
11005;DHT22;5555;59.622;16.556;2023-01-16T17:17:10;3.40;99.90
11005;DHT22;5555;59.622;16.556;2023-01-16T17:19:37;3.40;99.90
11005;DHT22;5555;59.622;16.556;2023-01-16T17:22:02;3.40;99.90
11005;DHT22;5555;59.622;16.556;2023-01-16T17:24:28;3.40;99.90
11005;DHT22;5555;59.622;16.556;2023-01-16T17:26:53;3.40;99.90
11005;DHT22;5555;59.622;16.556;2023-01-16T17:29:19;3.40;99.90
11005;DHT22;5555;59.622;16.556;2023-01-16T17:31:45;3.40;99.90
11005;DHT22;5555;59.622;16.556;2023-01-16T17:34:13;3.40;99.90
11005;DHT22;5555;59.622;16.556;2023-01-16T17:36:42;3.40;99.90
11005;DHT22;5555;59.622;16.556;2023-01-16T17:39:08;3.40;99.90
11005;DHT22;5555;59.622;16.556;2023-01-16T17:41:36;3.40;99.90
11005;DHT22;5555;59.622;16.556;2023-01-16T17:44:25;3.30;99.90
11005;DHT22;5555;59.622;16.556;2023-01-16T17:47:10;3.30;99.90
11005;DHT22;5555;59.622;16.556;2023-01-16T17:49:36;3.30;99.90
11005;DHT22;5555;59.622;16.556;2023-01-16T17:52:21;3.30;99.90
11005;DHT22;5555;59.622;16.556;2023-01-16T17:54:46;3.30;99.90
11005;DHT22;5555;59.622;16.556;2023-01-16T17:57:31;3.20;99.90
11005;DHT22;5555;59.622;16.556;2023-01-16T17:59:57;3.30;99.90
11005;DHT22;5555;59.622;16.556;2023-01-16T18:02:23;3.20;99.90
11005;DHT22;5555;59.622;16.556;2023-01-16T18:04:49;3.20;99.90
11005;DHT22;5555;59.622;16.556;2023-01-16T18:07:16;3.20;99.90
11005;DHT22;5555;59.622;16.556;2023-01-16T18:09:41;3.30;99.90
11005;DHT22;5555;59.622;16.556;2023-01-16T18:12:09;3.30;99.90
11005;DHT22;5555;59.622;16.556;2023-01-16T18:14:53;3.20;99.90
11005;DHT22;5555;59.622;16.556;2023-01-16T18:17:37;3.20;99.90
11005;DHT22;5555;59.622;16.556;2023-01-16T18:20:04;3.20;99.90
11005;DHT22;5555;59.622;16.556;2023-01-16T18:22:33;3.20;99.90
11005;DHT22;5555;59.622;16.556;2023-01-16T18:25:03;3.20;99.90
11005;DHT22;5555;59.622;16.556;2023-01-16T18:27:29;3.20;99.90
11005;DHT22;5555;59.622;16.556;2023-01-16T18:29:55;3.20;99.90
11005;DHT22;5555;59.622;16.556;2023-01-16T18:32:21;3.20;99.90
11005;DHT22;5555;59.622;16.556;2023-01-16T18:35:02;3.10;99.90
11005;DHT22;5555;59.622;16.556;2023-01-16T18:39:59;3.10;99.90
11005;DHT22;5555;59.622;16.556;2023-01-16T18:42:43;3.10;99.90
11005;DHT22;5555;59.622;16.556;2023-01-16T18:45:28;3.00;99.90
11005;DHT22;5555;59.622;16.556;2023-01-16T18:48:13;2.90;99.90
11005;DHT22;5555;59.622;16.556;2023-01-16T18:50:59;2.80;99.90
11005;DHT22;5555;59.622;16.556;2023-01-16T18:53:49;2.70;99.90